KQEL

Gapyong

Gapyong, South Korea
METAR KQEL 260410Z AUTO 18003KT 9999 CLR 28/11 A2984 RMK A02 TSNO
Observed Flight Rules
May-26 @ 04:10 UTC (12 minutes ago) Visual Flight Rules
Wind Visibility Clouds
180° at 3 knots 10,000+ meters
  • Clear skies
Temperatures Readings
Current 28°C / 82°F
Dewpoint 11°C / 52°F
Humidity 35%
Altimeter 29.84" Hg
Pressure 1010 hPa
METAR KQEL 260410Z AUTO 18003KT 9999 CLR 28/11 A2984 RMK A02 TSNO
Observed Flight Rules
May-26 @ 04:10 UTC
(12 minutes ago)
VFR
Wind Visibility
180° at 3 knots 10,000+ meters
Clouds
  • Clear skies
Temperature Dewpoint
28°C / 82°F 11°C / 52°F
Humidity Altimeter Pressure
35% 29.84" Hg 1010 hPa